createdAt,value
2023-03-22T00:02:02.760Z,57.40
2023-03-22T00:04:34.424Z,57.47
2023-03-22T00:07:06.147Z,57.52
2023-03-22T00:09:37.829Z,57.38
2023-03-22T00:12:09.706Z,57.29
2023-03-22T00:14:41.520Z,57.49
2023-03-22T00:17:13.202Z,57.08
2023-03-22T00:19:45.028Z,57.35
2023-03-22T00:22:17.788Z,57.18
2023-03-22T00:24:49.480Z,57.02
2023-03-22T00:27:21.158Z,56.89
2023-03-22T00:29:53.200Z,57.34
2023-03-22T00:32:24.894Z,57.37
2023-03-22T00:34:58.862Z,57.24
2023-03-22T00:37:38.811Z,57.33
2023-03-22T00:40:14.245Z,57.76
2023-03-22T00:42:46.094Z,57.53
2023-03-22T00:45:17.808Z,58.01
2023-03-22T00:47:49.545Z,57.71
2023-03-22T00:50:23.209Z,58.11
2023-03-22T00:52:55.067Z,57.76
2023-03-22T00:55:27.865Z,57.84
2023-03-22T00:57:59.667Z,58.49
2023-03-22T01:00:33.628Z,58.88
2023-03-22T01:03:05.594Z,58.90
2023-03-22T01:05:37.765Z,58.86
2023-03-22T01:08:10.554Z,58.80
2023-03-22T01:10:43.802Z,58.82
2023-03-22T01:13:17.851Z,59.14
2023-03-22T01:15:51.168Z,58.87
2023-03-22T01:18:23.456Z,58.95
2023-03-22T01:20:55.408Z,59.08
2023-03-22T01:23:27.618Z,59.36
2023-03-22T01:25:59.811Z,59.32
2023-03-22T01:28:31.596Z,59.34
2023-03-22T01:31:04.079Z,59.44
2023-03-22T01:33:36.732Z,59.40
2023-03-22T01:36:08.688Z,59.90
2023-03-22T01:38:41.016Z,59.46
2023-03-22T01:41:12.934Z,59.62
2023-03-22T01:44:13.733Z,59.79
2023-03-22T01:46:47.829Z,59.66
2023-03-22T01:49:31.219Z,59.78
2023-03-22T01:52:14.685Z,60.06
2023-03-22T01:54:55.011Z,60.08
2023-03-22T01:57:40.932Z,60.06
2023-03-22T02:00:19.005Z,60.57
2023-03-22T02:03:19.012Z,61.02
2023-03-22T02:05:53.965Z,60.64
2023-03-22T02:08:29.061Z,60.99
2023-03-22T02:11:04.815Z,60.79
2023-03-22T02:13:51.816Z,60.83
2023-03-22T02:17:01.217Z,60.86
2023-03-22T02:19:45.564Z,60.94
2023-03-22T02:22:42.371Z,61.18
2023-03-22T02:25:51.941Z,61.41
2023-03-22T02:28:54.327Z,61.45
2023-03-22T02:31:51.184Z,61.37
2023-03-22T02:34:44.342Z,61.89
2023-03-22T02:37:37.724Z,61.78
2023-03-22T02:40:18.688Z,62.07
2023-03-22T02:43:08.324Z,62.34
2023-03-22T02:45:55.637Z,62.13
2023-03-22T02:48:32.486Z,62.47
2023-03-22T02:51:13.424Z,62.48
2023-03-22T02:53:57.955Z,62.48
2023-03-22T02:56:39.213Z,62.75
2023-03-22T02:59:15.965Z,62.67
2023-03-22T03:01:52.316Z,62.96
2023-03-22T03:04:37.477Z,62.82
2023-03-22T03:07:13.105Z,62.70
2023-03-22T03:09:49.153Z,62.87
2023-03-22T03:12:26.189Z,63.06
2023-03-22T03:15:00.529Z,62.84
2023-03-22T03:17:35.190Z,63.19
2023-03-22T03:20:16.796Z,63.31
2023-03-22T03:23:07.323Z,63.58
2023-03-22T03:26:01.603Z,63.79
2023-03-22T03:29:05.669Z,63.80
2023-03-22T03:31:46.403Z,64.19
2023-03-22T03:34:36.272Z,64.04
2023-03-22T03:37:15.066Z,64.44
2023-03-22T03:40:01.696Z,64.28
2023-03-22T03:42:34.530Z,64.40
2023-03-22T03:45:08.469Z,64.28
2023-03-22T03:47:41.052Z,64.37
2023-03-22T03:50:16.206Z,64.62
2023-03-22T03:52:52.366Z,65.00
2023-03-22T03:55:27.168Z,64.89
2023-03-22T03:57:58.988Z,64.94
2023-03-22T04:00:31.133Z,64.98
2023-03-22T04:03:31.503Z,65.35
2023-03-22T04:06:18.088Z,65.58
2023-03-22T04:08:56.684Z,65.74
2023-03-22T04:11:32.767Z,65.70
2023-03-22T04:14:07.083Z,65.73
2023-03-22T04:16:38.810Z,65.88
2023-03-22T04:19:14.554Z,66.56
2023-03-22T04:21:46.355Z,66.62
2023-03-22T04:24:18.129Z,66.49
2023-03-22T04:26:52.706Z,66.89
2023-03-22T04:29:32.121Z,66.63
2023-03-22T04:32:19.523Z,66.76
2023-03-22T04:34:52.680Z,66.84
2023-03-22T04:37:27.161Z,66.98
2023-03-22T04:40:16.545Z,66.70
2023-03-22T04:43:05.092Z,67.07
2023-03-22T04:46:01.736Z,67.16
2023-03-22T04:48:41.748Z,67.35
2023-03-22T04:51:16.118Z,67.34
2023-03-22T04:54:00.319Z,67.60
2023-03-22T04:56:32.134Z,67.98
2023-03-22T04:59:04.629Z,68.06
2023-03-22T05:01:37.581Z,67.86
2023-03-22T05:04:21.934Z,68.35
2023-03-22T05:06:58.453Z,68.03
2023-03-22T05:09:37.709Z,68.83
2023-03-22T05:12:09.500Z,68.56
2023-03-22T05:14:51.448Z,68.90
2023-03-22T05:17:27.924Z,68.41
2023-03-22T05:20:09.317Z,68.93
2023-03-22T05:22:45.315Z,69.24
2023-03-22T05:25:17.032Z,68.90
2023-03-22T05:27:54.168Z,68.64
2023-03-22T05:30:52.073Z,69.15
2023-03-22T05:33:34.781Z,68.79
2023-03-22T05:36:08.952Z,67.84
2023-03-22T05:38:52.434Z,66.51
2023-03-22T05:41:24.500Z,65.74
2023-03-22T05:43:56.371Z,65.07
2023-03-22T05:46:28.468Z,64.96
2023-03-22T05:49:31.803Z,65.01
2023-03-22T05:52:06.080Z,64.79
2023-03-22T05:54:56.822Z,64.72
2023-03-22T05:57:30.156Z,64.77
2023-03-22T06:00:02.594Z,64.40
2023-03-22T06:02:47.295Z,63.70
2023-03-22T06:05:21.069Z,62.65
2023-03-22T06:07:53.966Z,61.52
2023-03-22T06:10:28.122Z,60.76
2023-03-22T06:13:00.418Z,58.86
2023-03-22T06:15:36.214Z,57.83
2023-03-22T06:18:28.279Z,56.85
2023-03-22T06:21:07.401Z,55.40
2023-03-22T06:23:39.235Z,53.78
2023-03-22T06:26:13.300Z,53.23
2023-03-22T06:28:46.893Z,52.68
2023-03-22T06:31:18.706Z,52.13
2023-03-22T06:33:57.734Z,51.62
2023-03-22T06:36:36.029Z,51.02
2023-03-22T06:39:17.872Z,50.01
2023-03-22T06:41:50.720Z,49.84
2023-03-22T06:44:22.999Z,49.42
2023-03-22T06:47:10.556Z,49.44
2023-03-22T06:49:58.814Z,49.05
2023-03-22T06:52:42.173Z,48.78
2023-03-22T06:55:13.951Z,47.57
2023-03-22T06:57:45.678Z,47.23
2023-03-22T07:00:17.708Z,47.29
2023-03-22T07:02:52.231Z,46.67
2023-03-22T07:05:41.104Z,46.14
2023-03-22T07:08:12.933Z,45.21
2023-03-22T07:10:53.021Z,44.88
2023-03-22T07:13:28.792Z,43.73
2023-03-22T07:16:05.216Z,43.71
2023-03-22T07:18:58.256Z,43.68
2023-03-22T07:21:30.052Z,42.47
2023-03-22T07:24:07.803Z,42.40
2023-03-22T07:26:40.958Z,41.96
2023-03-22T07:29:14.464Z,41.81
2023-03-22T07:31:46.265Z,40.67
2023-03-22T07:34:28.180Z,40.74
2023-03-22T07:37:07.414Z,39.89
2023-03-22T07:39:39.520Z,39.78
2023-03-22T07:42:11.826Z,39.23
2023-03-22T07:44:52.517Z,38.79
2023-03-22T07:47:39.520Z,38.41
2023-03-22T07:50:23.791Z,37.37
2023-03-22T07:53:00.377Z,37.55
2023-03-22T07:55:32.226Z,37.10
2023-03-22T07:58:04.481Z,36.64
2023-03-22T08:00:36.234Z,36.79
2023-03-22T08:03:43.025Z,35.39
2023-03-22T08:06:37.185Z,35.39
2023-03-22T08:09:09.146Z,35.38
2023-03-22T08:11:41.298Z,34.80
2023-03-22T08:14:13.931Z,34.12
2023-03-22T08:16:46.438Z,33.60
2023-03-22T08:19:18.640Z,33.18
2023-03-22T08:21:51.573Z,33.49
2023-03-22T08:24:49.138Z,32.75
2023-03-22T08:27:33.485Z,31.91
2023-03-22T08:30:06.800Z,31.71
2023-03-22T08:32:41.384Z,31.51
2023-03-22T08:35:13.349Z,31.76
2023-03-22T08:37:46.191Z,31.74
2023-03-22T08:40:19.403Z,31.50
2023-03-22T08:42:56.790Z,31.48
2023-03-22T08:45:29.109Z,30.70
2023-03-22T08:48:09.664Z,31.40
2023-03-22T08:51:01.144Z,30.87
2023-03-22T08:53:42.102Z,31.47
2023-03-22T08:56:49.234Z,30.87
2023-03-22T08:59:41.147Z,30.64
2023-03-22T09:02:27.502Z,30.37
2023-03-22T09:05:00.561Z,30.29
2023-03-22T09:07:32.479Z,30.29
2023-03-22T09:10:16.801Z,30.80
2023-03-22T09:12:51.399Z,30.96
2023-03-22T09:15:23.272Z,30.34
2023-03-22T09:18:09.598Z,30.62
2023-03-22T09:20:41.592Z,30.63
2023-03-22T09:23:15.548Z,29.87
2023-03-22T09:25:48.678Z,30.63
2023-03-22T09:28:25.340Z,29.67
2023-03-22T09:31:03.451Z,29.59
2023-03-22T09:33:38.847Z,29.69
2023-03-22T09:36:11.989Z,29.51
2023-03-22T09:38:45.403Z,29.49
2023-03-22T09:41:22.535Z,29.17
2023-03-22T09:43:59.775Z,29.49
2023-03-22T09:46:38.839Z,29.34
2023-03-22T09:49:26.186Z,29.41
2023-03-22T09:51:59.995Z,29.11
2023-03-22T09:54:35.941Z,28.51
2023-03-22T09:57:16.324Z,28.88
2023-03-22T10:00:15.609Z,28.72
2023-03-22T10:03:02.642Z,28.98
2023-03-22T10:05:48.283Z,29.46
2023-03-22T10:08:48.326Z,29.82
2023-03-22T10:11:32.033Z,29.71
2023-03-22T10:14:09.432Z,29.77
2023-03-22T10:16:41.806Z,29.34
2023-03-22T10:19:29.076Z,29.56
2023-03-22T10:22:04.057Z,29.14
2023-03-22T10:24:38.453Z,28.72
2023-03-22T10:27:17.423Z,28.99
2023-03-22T10:29:54.900Z,29.32
2023-03-22T10:32:57.500Z,29.09
2023-03-22T10:35:31.735Z,29.08
2023-03-22T10:38:07.370Z,28.47
2023-03-22T10:40:42.222Z,28.91
2023-03-22T10:43:30.121Z,27.59
2023-03-22T10:46:07.648Z,27.70
2023-03-22T10:48:45.538Z,27.70
2023-03-22T10:51:30.729Z,28.37
2023-03-22T10:54:03.367Z,28.36
2023-03-22T10:56:35.035Z,27.92
2023-03-22T10:59:06.789Z,27.64
2023-03-22T11:01:44.899Z,27.55
2023-03-22T11:04:17.181Z,27.81
2023-03-22T11:06:53.347Z,27.69
2023-03-22T11:09:26.472Z,28.04
2023-03-22T11:12:01.480Z,28.81
2023-03-22T11:14:36.870Z,29.07
2023-03-22T11:17:14.246Z,29.00
2023-03-22T11:20:01.288Z,28.45
2023-03-22T11:22:45.370Z,28.92
2023-03-22T11:25:28.419Z,28.86
2023-03-22T11:28:16.746Z,27.86
2023-03-22T11:31:08.740Z,28.44
2023-03-22T11:33:58.208Z,28.33
2023-03-22T11:36:30.022Z,28.38
2023-03-22T11:39:07.386Z,28.01
2023-03-22T11:41:40.866Z,28.24
2023-03-22T11:44:16.610Z,28.46
2023-03-22T11:47:00.770Z,27.69
2023-03-22T11:49:45.563Z,27.91
2023-03-22T11:52:22.916Z,28.08
2023-03-22T11:54:56.234Z,27.82
2023-03-22T11:57:31.547Z,27.32
2023-03-22T12:00:18.211Z,27.30
2023-03-22T12:02:54.941Z,26.92
2023-03-22T12:05:41.465Z,26.82
2023-03-22T12:08:25.307Z,26.67
2023-03-22T12:11:17.831Z,27.20
2023-03-22T12:14:00.097Z,27.53
2023-03-22T12:16:41.029Z,27.85
2023-03-22T12:19:41.835Z,27.10
2023-03-22T12:22:23.201Z,27.10
2023-03-22T12:24:54.879Z,27.42
2023-03-22T12:27:42.588Z,27.60
2023-03-22T12:30:22.027Z,27.53
2023-03-22T12:33:00.116Z,26.80
2023-03-22T12:35:35.184Z,27.57
2023-03-22T12:38:36.735Z,26.61
2023-03-22T12:41:14.891Z,27.24
2023-03-22T12:43:56.609Z,27.70
2023-03-22T12:46:40.102Z,27.96
2023-03-22T12:49:44.350Z,27.59
2023-03-22T12:52:19.056Z,27.46
2023-03-22T12:54:52.576Z,27.22
2023-03-22T12:57:24.575Z,26.81
2023-03-22T13:00:00.446Z,26.97
2023-03-22T13:02:34.359Z,27.55
2023-03-22T13:05:09.372Z,27.07
2023-03-22T13:07:47.086Z,27.68
2023-03-22T13:10:31.205Z,28.10
2023-03-22T13:13:14.764Z,28.06
2023-03-22T13:16:09.621Z,27.67
2023-03-22T13:18:44.547Z,27.54
2023-03-22T13:21:19.310Z,27.84
2023-03-22T13:24:01.994Z,27.64
2023-03-22T13:26:43.679Z,27.92
2023-03-22T13:29:17.609Z,28.01
2023-03-22T13:31:52.374Z,28.08
2023-03-22T13:34:32.214Z,28.40
2023-03-22T13:37:09.935Z,28.01
2023-03-22T13:39:41.698Z,28.43
2023-03-22T13:42:20.015Z,28.01
2023-03-22T13:44:57.066Z,28.39
2023-03-22T13:47:36.176Z,28.10
2023-03-22T13:50:23.476Z,27.97
2023-03-22T13:53:15.785Z,28.02
2023-03-22T13:55:51.416Z,28.32
2023-03-22T13:58:49.989Z,28.26
2023-03-22T14:01:29.370Z,27.92
2023-03-22T14:04:06.887Z,27.97
2023-03-22T14:06:54.251Z,28.75
2023-03-22T14:09:35.868Z,28.71
2023-03-22T14:12:21.245Z,28.45
2023-03-22T14:14:57.055Z,28.48
2023-03-22T14:17:47.051Z,28.41
2023-03-22T14:20:23.388Z,28.33
